createdAt,value
2023-03-05T00:01:11.378Z,101364.13
2023-03-05T00:03:38.185Z,101363.03
2023-03-05T00:06:04.980Z,101367.63
2023-03-05T00:08:31.643Z,101359.78
2023-03-05T00:11:02.022Z,101361.19
2023-03-05T00:13:28.576Z,101359.59
2023-03-05T00:15:55.222Z,101357.50
2023-03-05T00:18:21.981Z,101353.78
2023-03-05T00:20:48.605Z,101345.06
2023-03-05T00:23:15.029Z,101349.44
2023-03-05T00:25:41.526Z,101347.72
2023-03-05T00:28:08.604Z,101335.34
2023-03-05T00:30:35.762Z,101339.13
2023-03-05T00:33:02.161Z,101341.16
2023-03-05T00:35:28.589Z,101341.41
2023-03-05T00:37:55.174Z,101342.50
2023-03-05T00:40:21.718Z,101338.38
2023-03-05T00:42:48.176Z,101334.31
2023-03-05T00:45:14.556Z,101338.66
2023-03-05T00:47:40.919Z,101329.66
2023-03-05T00:50:07.840Z,101329.84
2023-03-05T00:52:34.210Z,101324.03
2023-03-05T00:55:00.587Z,101324.78
2023-03-05T00:57:26.972Z,101327.09
2023-03-05T00:59:53.348Z,101324.50
2023-03-05T01:02:19.684Z,101310.63
2023-03-05T01:04:47.175Z,101310.75
2023-03-05T01:07:13.606Z,101309.56
2023-03-05T01:09:39.946Z,101305.16
2023-03-05T01:12:06.585Z,101308.59
2023-03-05T01:14:34.535Z,101305.84
2023-03-05T01:17:00.899Z,101305.47
2023-03-05T01:19:27.397Z,101309.78
2023-03-05T01:21:54.950Z,101305.19
2023-03-05T01:24:22.085Z,101308.84
2023-03-05T01:26:49.307Z,101307.75
2023-03-05T01:29:15.883Z,101302.09
2023-03-05T01:31:42.333Z,101302.31
2023-03-05T01:34:08.737Z,101302.13
2023-03-05T01:36:35.159Z,101296.75
2023-03-05T01:39:02.591Z,101288.03
2023-03-05T01:41:29.029Z,101284.78
2023-03-05T01:43:55.437Z,101281.72
2023-03-05T01:46:48.491Z,101279.81
2023-03-05T01:49:27.764Z,101272.53
2023-03-05T01:52:17.946Z,101282.25
2023-03-05T01:54:57.356Z,101280.25
2023-03-05T01:57:28.207Z,101270.22
2023-03-05T02:00:00.660Z,101268.06
2023-03-05T02:02:27.108Z,101252.63
2023-03-05T02:05:03.682Z,101249.72
2023-03-05T02:07:31.162Z,101257.25
2023-03-05T02:09:57.590Z,101259.72
2023-03-05T02:12:23.991Z,101259.66
2023-03-05T02:14:58.339Z,101258.84
2023-03-05T02:17:27.504Z,101252.97
2023-03-05T02:19:56.958Z,101248.19
2023-03-05T02:22:24.288Z,101248.28
2023-03-05T02:24:51.196Z,101251.31
2023-03-05T02:27:18.026Z,101245.25
2023-03-05T02:29:46.250Z,101236.75
2023-03-05T02:32:13.914Z,101231.66
2023-03-05T02:34:40.425Z,101236.28
2023-03-05T02:37:09.187Z,101224.97
2023-03-05T02:39:36.292Z,101223.63
2023-03-05T02:42:02.876Z,101222.91
2023-03-05T02:44:29.226Z,101227.41
2023-03-05T02:46:55.585Z,101216.16
2023-03-05T02:49:21.941Z,101214.72
2023-03-05T02:51:48.314Z,101217.25
2023-03-05T02:54:14.653Z,101214.53
2023-03-05T02:56:41.867Z,101209.00
2023-03-05T02:59:08.300Z,101211.91
2023-03-05T03:01:34.799Z,101207.81
2023-03-05T03:04:01.247Z,101202.00
2023-03-05T03:06:27.673Z,101202.09
2023-03-05T03:08:54.056Z,101203.16
2023-03-05T03:11:21.314Z,101197.19
2023-03-05T03:13:47.722Z,101197.44
2023-03-05T03:16:15.243Z,101193.84
2023-03-05T03:18:41.734Z,101186.09
2023-03-05T03:21:08.151Z,101193.31
2023-03-05T03:23:34.914Z,101190.50
2023-03-05T03:26:01.303Z,101176.25
2023-03-05T03:28:27.721Z,101175.31
2023-03-05T03:30:54.147Z,101171.78
2023-03-05T03:33:20.529Z,101169.47
2023-03-05T03:35:46.988Z,101170.16
2023-03-05T03:38:13.796Z,101170.00
2023-03-05T03:40:41.736Z,101162.09
2023-03-05T03:43:08.302Z,101156.44
2023-03-05T03:45:34.657Z,101154.78
2023-03-05T03:48:01.026Z,101150.31
2023-03-05T03:50:27.406Z,101149.00
2023-03-05T03:52:53.746Z,101149.41
2023-03-05T03:55:20.091Z,101153.16
2023-03-05T03:57:46.503Z,101143.25
2023-03-05T04:00:13.228Z,101139.59
2023-03-05T04:02:40.037Z,101139.28
2023-03-05T04:05:06.956Z,101136.16
2023-03-05T04:07:33.331Z,101131.63
2023-03-05T04:09:59.707Z,101130.72
2023-03-05T04:12:26.146Z,101127.88
2023-03-05T04:14:52.587Z,101127.72
2023-03-05T04:17:18.983Z,101123.63
2023-03-05T04:19:45.596Z,101116.69
2023-03-05T04:22:14.297Z,101112.25
2023-03-05T04:24:41.374Z,101118.03
2023-03-05T04:27:07.767Z,101117.25
2023-03-05T04:29:34.553Z,101113.72
2023-03-05T04:32:01.710Z,101109.28
2023-03-05T04:34:28.210Z,101113.47
2023-03-05T04:36:54.860Z,101109.75
2023-03-05T04:39:21.431Z,101112.13
2023-03-05T04:41:48.310Z,101109.28
2023-03-05T04:44:14.722Z,101114.41
2023-03-05T04:46:41.263Z,101102.78
2023-03-05T04:49:07.697Z,101107.31
2023-03-05T04:51:34.073Z,101110.75
2023-03-05T04:54:00.495Z,101108.75
2023-03-05T04:56:26.910Z,101113.16
2023-03-05T04:58:53.305Z,101115.88
2023-03-05T05:01:19.742Z,101109.69
2023-03-05T05:03:46.200Z,101106.41
2023-03-05T05:06:12.604Z,101099.78
2023-03-05T05:08:39.003Z,101103.97
2023-03-05T05:11:07.355Z,101098.28
2023-03-05T05:13:34.012Z,101091.59
2023-03-05T05:16:00.456Z,101095.09
2023-03-05T05:18:27.081Z,101093.91
2023-03-05T05:20:53.481Z,101090.66
2023-03-05T05:23:19.850Z,101099.09
2023-03-05T05:25:46.257Z,101096.94
2023-03-05T05:28:12.837Z,101087.72
2023-03-05T05:30:39.282Z,101093.19
2023-03-05T05:33:05.678Z,101080.50
2023-03-05T05:35:32.086Z,101074.38
2023-03-05T05:37:58.501Z,101070.44
2023-03-05T05:40:24.951Z,101066.97
2023-03-05T05:42:51.339Z,101059.34
2023-03-05T05:45:17.845Z,101071.00
2023-03-05T05:47:44.336Z,101063.47
2023-03-05T05:50:11.412Z,101070.00
2023-03-05T05:52:37.830Z,101081.84
2023-03-05T05:55:04.583Z,101085.75
2023-03-05T05:57:31.010Z,101084.19
2023-03-05T05:59:57.455Z,101074.72
2023-03-05T06:02:23.978Z,101079.88
2023-03-05T06:04:50.395Z,101079.84
2023-03-05T06:07:16.784Z,101075.47
2023-03-05T06:09:43.206Z,101077.13
2023-03-05T06:12:09.595Z,101074.88
2023-03-05T06:14:35.984Z,101078.88
2023-03-05T06:17:02.389Z,101080.31
2023-03-05T06:19:28.788Z,101075.28
2023-03-05T06:21:55.170Z,101074.31
2023-03-05T06:24:22.217Z,101073.47
2023-03-05T06:26:49.184Z,101072.19
2023-03-05T06:29:16.531Z,101070.53
2023-03-05T06:31:42.915Z,101064.00
2023-03-05T06:34:10.078Z,101062.78
2023-03-05T06:36:36.455Z,101066.66
2023-03-05T06:39:04.499Z,101062.84
2023-03-05T06:41:32.475Z,101061.53
2023-03-05T06:44:00.352Z,101061.59
2023-03-05T06:46:28.780Z,101064.97
2023-03-05T06:48:57.143Z,101064.53
2023-03-05T06:51:28.020Z,101072.28
2023-03-05T06:53:55.121Z,101068.81
2023-03-05T06:56:22.199Z,101071.38
2023-03-05T06:58:50.794Z,101075.72
2023-03-05T07:01:18.363Z,101073.53
2023-03-05T07:03:44.982Z,101068.78
2023-03-05T07:06:14.421Z,101069.78
2023-03-05T07:08:40.969Z,101066.44
2023-03-05T07:11:19.426Z,101056.88
2023-03-05T07:13:47.720Z,101058.31
2023-03-05T07:16:21.505Z,101052.97
2023-03-05T07:18:48.863Z,101055.25
2023-03-05T07:21:18.457Z,101053.19
2023-03-05T07:23:44.904Z,101055.47
2023-03-05T07:26:12.213Z,101054.44
2023-03-05T07:28:38.647Z,101044.19
2023-03-05T07:31:08.255Z,101050.72
2023-03-05T07:33:37.032Z,101046.66
2023-03-05T07:36:04.834Z,101050.72
2023-03-05T07:38:31.849Z,101044.63
2023-03-05T07:41:05.685Z,101041.97
2023-03-05T07:43:32.085Z,101044.00
2023-03-05T07:45:58.582Z,101035.38
2023-03-05T07:48:25.300Z,101034.91
2023-03-05T07:51:03.080Z,101031.50
2023-03-05T07:53:29.453Z,101034.19
2023-03-05T07:55:55.842Z,101023.81
2023-03-05T07:58:22.236Z,101014.84
2023-03-05T08:00:48.930Z,101014.06
2023-03-05T08:03:15.368Z,101018.69
2023-03-05T08:05:42.468Z,101015.56
2023-03-05T08:08:09.494Z,101007.81
2023-03-05T08:10:36.560Z,101000.66
2023-03-05T08:13:03.218Z,101008.03
2023-03-05T08:15:31.529Z,101003.56
2023-03-05T08:17:58.558Z,101013.41
2023-03-05T08:20:25.064Z,100999.63
2023-03-05T08:22:51.639Z,101000.75
2023-03-05T08:25:18.031Z,101007.13
2023-03-05T08:27:45.919Z,101001.38
2023-03-05T08:30:18.426Z,101000.59
2023-03-05T08:32:45.011Z,100998.81
2023-03-05T08:35:11.777Z,100996.00
2023-03-05T08:37:38.234Z,100989.66
2023-03-05T08:40:05.208Z,100993.31
2023-03-05T08:42:31.731Z,100991.91
2023-03-05T08:44:58.301Z,100992.63
2023-03-05T08:47:26.564Z,100987.47
2023-03-05T08:49:55.541Z,100987.97
2023-03-05T08:52:22.541Z,100980.47
2023-03-05T08:54:49.127Z,100983.25
2023-03-05T08:57:15.528Z,100978.41
2023-03-05T08:59:41.984Z,100977.84
2023-03-05T09:02:11.271Z,100982.28
2023-03-05T09:04:37.732Z,100968.34
2023-03-05T09:07:04.279Z,100981.69
2023-03-05T09:09:32.584Z,100972.34
2023-03-05T09:11:59.844Z,100971.75
2023-03-05T09:14:28.270Z,100965.56
2023-03-05T09:16:55.878Z,100960.41
2023-03-05T09:19:22.371Z,100956.03
2023-03-05T09:21:48.761Z,100961.06
2023-03-05T09:24:15.181Z,100952.84
2023-03-05T09:26:42.234Z,100955.66
2023-03-05T09:29:09.157Z,100959.88
2023-03-05T09:31:36.757Z,100958.75
2023-03-05T09:34:04.185Z,100956.72
2023-03-05T09:36:31.613Z,100949.84
2023-03-05T09:38:58.541Z,100955.13
2023-03-05T09:41:31.145Z,100948.03
2023-03-05T09:44:00.497Z,100946.50
2023-03-05T09:46:29.819Z,100937.03
2023-03-05T09:49:16.103Z,100933.16
2023-03-05T09:51:46.494Z,100930.09
2023-03-05T09:54:26.759Z,100932.88
2023-03-05T09:56:58.365Z,100938.56
2023-03-05T09:59:47.918Z,100939.88
2023-03-05T10:02:21.217Z,100936.78
2023-03-05T10:05:13.599Z,100931.22
2023-03-05T10:07:42.077Z,100927.06
2023-03-05T10:10:24.632Z,100927.31
2023-03-05T10:12:52.682Z,100926.16
2023-03-05T10:15:32.219Z,100923.59
2023-03-05T10:17:58.532Z,100918.47
2023-03-05T10:20:44.611Z,100917.13
2023-03-05T10:23:24.526Z,100903.09
2023-03-05T10:26:04.303Z,100907.31
2023-03-05T10:28:53.837Z,100902.19
2023-03-05T10:31:21.497Z,100894.94
2023-03-05T10:33:53.567Z,100896.69
2023-03-05T10:36:19.825Z,100891.66
2023-03-05T10:39:09.343Z,100887.03
2023-03-05T10:41:49.519Z,100888.56
2023-03-05T10:44:40.713Z,100883.72
2023-03-05T10:47:20.682Z,100881.03
2023-03-05T10:49:50.858Z,100886.19
2023-03-05T10:52:19.767Z,100885.88
2023-03-05T10:54:46.165Z,100870.66
2023-03-05T10:57:12.504Z,100868.66
2023-03-05T10:59:48.368Z,100866.56
2023-03-05T11:02:14.883Z,100856.53
2023-03-05T11:04:41.421Z,100859.56
2023-03-05T11:07:32.587Z,100854.47
2023-03-05T11:10:17.168Z,100849.38
2023-03-05T11:12:43.781Z,100854.00
2023-03-05T11:15:10.169Z,100845.84
2023-03-05T11:17:44.800Z,100843.44
2023-03-05T11:20:26.541Z,100830.38
2023-03-05T11:23:08.630Z,100836.72
2023-03-05T11:25:35.562Z,100841.50
2023-03-05T11:28:03.572Z,100824.66
2023-03-05T11:30:32.551Z,100828.47
2023-03-05T11:33:20.285Z,100829.72
2023-03-05T11:35:48.209Z,100826.13
2023-03-05T11:38:18.799Z,100827.31
2023-03-05T11:40:45.947Z,100821.91
2023-03-05T11:43:21.045Z,100824.19
2023-03-05T11:45:49.647Z,100817.53
2023-03-05T11:48:19.724Z,100820.69
2023-03-05T11:50:49.820Z,100810.84
2023-03-05T11:53:22.625Z,100798.31
2023-03-05T11:55:52.248Z,100800.28
2023-03-05T11:58:36.052Z,100789.75
2023-03-05T12:01:06.083Z,100794.16
2023-03-05T12:03:35.583Z,100785.75
2023-03-05T12:06:52.965Z,100787.25
2023-03-05T12:09:42.217Z,100776.56
2023-03-05T12:12:28.520Z,100770.94
2023-03-05T12:15:09.832Z,100769.97
2023-03-05T12:17:42.287Z,100769.13
2023-03-05T12:20:20.607Z,100754.94
2023-03-05T12:22:47.109Z,100748.72
2023-03-05T12:25:25.009Z,100747.94
2023-03-05T12:27:51.400Z,100751.16
2023-03-05T12:30:49.988Z,100737.09
2023-03-05T12:33:34.481Z,100739.75
2023-03-05T12:36:33.892Z,100735.72
2023-03-05T12:39:00.404Z,100728.84
2023-03-05T12:41:31.004Z,100723.66
2023-03-05T12:44:07.595Z,100724.44
2023-03-05T12:46:38.563Z,100726.47
2023-03-05T12:49:20.293Z,100715.31
2023-03-05T12:51:48.261Z,100719.81
2023-03-05T12:54:39.582Z,100718.38
2023-03-05T12:57:13.808Z,100707.25
2023-03-05T12:59:44.154Z,100702.28
2023-03-05T13:02:21.002Z,100704.66
2023-03-05T13:04:48.298Z,100692.78
2023-03-05T13:07:17.262Z,100689.19
2023-03-05T13:09:54.635Z,100689.19
2023-03-05T13:12:21.778Z,100685.81
2023-03-05T13:14:58.081Z,100678.16
2023-03-05T13:17:26.713Z,100665.50
2023-03-05T13:19:53.076Z,100669.47
2023-03-05T13:22:19.428Z,100671.97
2023-03-05T13:24:46.924Z,100658.81
2023-03-05T13:27:24.416Z,100658.53
2023-03-05T13:29:52.451Z,100641.97
2023-03-05T13:32:25.624Z,100645.53
2023-03-05T13:34:54.619Z,100633.63
2023-03-05T13:37:24.087Z,100642.13
2023-03-05T13:40:00.457Z,100640.00
2023-03-05T13:42:28.557Z,100636.19
2023-03-05T13:44:54.963Z,100625.84
2023-03-05T13:47:23.078Z,100623.38
2023-03-05T13:50:01.143Z,100616.09
2023-03-05T13:52:30.717Z,100610.41
2023-03-05T13:54:58.259Z,100608.38
2023-03-05T13:57:50.546Z,100615.16
2023-03-05T14:00:34.686Z,100600.16
2023-03-05T14:03:10.005Z,100594.00
2023-03-05T14:05:36.782Z,100591.69
2023-03-05T14:08:03.406Z,100590.81
2023-03-05T14:10:32.344Z,100590.25
2023-03-05T14:13:00.106Z,100585.88
2023-03-05T14:15:32.161Z,100571.22
2023-03-05T14:18:10.692Z,100566.00
2023-03-05T14:20:37.590Z,100558.47
2023-03-05T14:23:32.683Z,100561.31
2023-03-05T14:26:19.868Z,100549.88
2023-03-05T14:29:04.583Z,100543.56
2023-03-05T14:31:35.432Z,100546.22
2023-03-05T14:34:04.255Z,100558.84
2023-03-05T14:36:31.188Z,100558.13
2023-03-05T14:38:58.024Z,100549.53
2023-03-05T14:41:24.317Z,100534.53
2023-03-05T14:43:50.795Z,100528.31
2023-03-05T14:46:17.455Z,100531.81
2023-03-05T14:48:43.912Z,100525.44
2023-03-05T14:51:10.851Z,100526.63
2023-03-05T14:53:46.299Z,100528.81
2023-03-05T14:56:21.620Z,100526.88
2023-03-05T14:58:47.979Z,100521.06
2023-03-05T15:01:14.433Z,100519.25
2023-03-05T15:03:41.451Z,100513.22
2023-03-05T15:06:30.475Z,100512.84
2023-03-05T15:08:56.864Z,100507.56
2023-03-05T15:11:23.376Z,100501.63
2023-03-05T15:13:52.557Z,100499.53
2023-03-05T15:16:19.641Z,100503.78
2023-03-05T15:18:46.365Z,100500.66
2023-03-05T15:21:12.829Z,100506.59
2023-03-05T15:23:39.401Z,100504.19
2023-03-05T15:26:07.886Z,100496.66
2023-03-05T15:28:36.446Z,100497.16
2023-03-05T15:31:04.212Z,100492.94
2023-03-05T15:33:30.953Z,100483.38
2023-03-05T15:35:57.899Z,100486.53
2023-03-05T15:38:24.957Z,100478.19
2023-03-05T15:40:51.917Z,100485.75
2023-03-05T15:43:19.064Z,100486.19
2023-03-05T15:45:45.824Z,100489.16
2023-03-05T15:48:12.372Z,100473.84
2023-03-05T15:50:43.585Z,100477.34
2023-03-05T15:53:12.017Z,100467.09
2023-03-05T15:55:43.398Z,100468.50
2023-03-05T15:58:09.890Z,100457.50
2023-03-05T16:00:40.668Z,100457.91
2023-03-05T16:03:07.069Z,100450.81
2023-03-05T16:05:34.802Z,100449.81
2023-03-05T16:08:01.511Z,100445.41
2023-03-05T16:10:28.907Z,100438.84
2023-03-05T16:12:58.850Z,100438.97
2023-03-05T16:15:25.347Z,100434.84
2023-03-05T16:17:54.704Z,100435.75
2023-03-05T16:20:22.002Z,100443.81
2023-03-05T16:22:49.245Z,100436.22
2023-03-05T16:25:16.091Z,100437.13
2023-03-05T16:27:42.439Z,100438.03
2023-03-05T16:30:09.276Z,100431.47
2023-03-05T16:32:37.549Z,100423.13
2023-03-05T16:35:04.354Z,100427.00
2023-03-05T16:37:30.774Z,100430.81
2023-03-05T16:40:00.265Z,100430.78
2023-03-05T16:42:26.815Z,100429.53
2023-03-05T16:44:53.208Z,100414.88
2023-03-05T16:47:19.872Z,100428.13
2023-03-05T16:49:46.242Z,100419.22
2023-03-05T16:52:18.688Z,100421.94
2023-03-05T16:54:46.143Z,100417.41
2023-03-05T16:57:12.569Z,100409.16
2023-03-05T16:59:39.110Z,100409.94
2023-03-05T17:02:05.870Z,100409.88
2023-03-05T17:04:32.616Z,100416.84
2023-03-05T17:06:59.029Z,100417.03
2023-03-05T17:09:25.404Z,100414.25
2023-03-05T17:11:52.360Z,100412.75
2023-03-05T17:14:19.027Z,100420.25
2023-03-05T17:16:45.573Z,100416.94
2023-03-05T17:19:12.220Z,100419.25
2023-03-05T17:21:41.878Z,100421.91
2023-03-05T17:24:09.295Z,100417.97
2023-03-05T17:26:36.458Z,100413.41
2023-03-05T17:29:04.183Z,100411.81
2023-03-05T17:31:30.608Z,100409.03
2023-03-05T17:33:57.224Z,100403.50
2023-03-05T17:36:24.182Z,100404.94
2023-03-05T17:38:51.307Z,100409.34
2023-03-05T17:41:18.505Z,100397.84
2023-03-05T17:43:45.206Z,100398.72
2023-03-05T17:46:12.464Z,100403.84
2023-03-05T17:48:39.322Z,100403.28
2023-03-05T17:51:10.603Z,100400.94
2023-03-05T17:53:38.806Z,100405.63
2023-03-05T17:56:10.225Z,100402.25
2023-03-05T17:58:37.044Z,100396.06
2023-03-05T18:01:04.560Z,100399.38
2023-03-05T18:03:31.121Z,100397.13
2023-03-05T18:05:57.556Z,100393.28
2023-03-05T18:08:23.974Z,100397.16
2023-03-05T18:10:50.372Z,100399.72
2023-03-05T18:13:16.965Z,100398.91
2023-03-05T18:15:47.516Z,100396.16
2023-03-05T18:18:15.462Z,100396.00
2023-03-05T18:20:41.890Z,100392.75
2023-03-05T18:23:09.820Z,100384.56
2023-03-05T18:25:36.249Z,100393.44
2023-03-05T18:28:07.799Z,100384.22
2023-03-05T18:30:34.517Z,100380.28
2023-03-05T18:33:01.225Z,100383.88
2023-03-05T18:35:29.190Z,100382.34
2023-03-05T18:37:55.808Z,100383.47
2023-03-05T18:40:23.804Z,100384.47
2023-03-05T18:42:50.580Z,100377.72
2023-03-05T18:45:18.613Z,100377.09
2023-03-05T18:47:45.075Z,100369.78
2023-03-05T18:50:14.712Z,100374.22
2023-03-05T18:52:42.126Z,100370.63
2023-03-05T18:55:11.047Z,100363.41
2023-03-05T18:57:37.476Z,100368.59
2023-03-05T19:00:04.315Z,100357.94
2023-03-05T19:02:30.680Z,100363.22
2023-03-05T19:04:59.254Z,100359.41
2023-03-05T19:07:25.679Z,100363.47
2023-03-05T19:10:03.329Z,100354.41
2023-03-05T19:12:34.994Z,100355.91
2023-03-05T19:15:02.371Z,100353.03
2023-03-05T19:17:30.543Z,100345.88
2023-03-05T19:19:58.800Z,100340.81
2023-03-05T19:22:26.725Z,100343.31
2023-03-05T19:24:53.842Z,100345.88
2023-03-05T19:27:20.235Z,100340.00
2023-03-05T19:29:46.710Z,100338.25
2023-03-05T19:32:15.881Z,100340.25
2023-03-05T19:34:42.482Z,100331.91
2023-03-05T19:37:09.186Z,100331.19
2023-03-05T19:39:35.620Z,100332.38
2023-03-05T19:42:02.034Z,100321.66
2023-03-05T19:44:28.625Z,100326.69
2023-03-05T19:46:55.002Z,100322.78
2023-03-05T19:49:21.440Z,100323.47
2023-03-05T19:51:48.336Z,100321.00
2023-03-05T19:54:16.224Z,100322.94
2023-03-05T19:56:43.642Z,100321.47
2023-03-05T19:59:10.490Z,100319.53
2023-03-05T20:01:36.914Z,100318.41
2023-03-05T20:04:04.469Z,100324.75
2023-03-05T20:06:32.052Z,100320.03
2023-03-05T20:08:59.032Z,100308.31
2023-03-05T20:11:25.905Z,100307.09
2023-03-05T20:13:53.422Z,100304.28
2023-03-05T20:16:29.526Z,100306.97
2023-03-05T20:18:56.871Z,100314.19
2023-03-05T20:21:28.964Z,100310.25
2023-03-05T20:23:56.093Z,100307.66
2023-03-05T20:26:25.648Z,100303.28
2023-03-05T20:28:55.468Z,100304.03
2023-03-05T20:31:23.956Z,100304.50
2023-03-05T20:33:50.835Z,100301.00
2023-03-05T20:36:17.449Z,100299.94
2023-03-05T20:38:45.626Z,100302.19
2023-03-05T20:41:14.968Z,100299.69
2023-03-05T20:43:44.681Z,100298.47
2023-03-05T20:46:32.235Z,100292.19
2023-03-05T20:49:00.445Z,100285.56
2023-03-05T20:51:28.906Z,100290.28
2023-03-05T20:53:58.399Z,100287.34
2023-03-05T20:56:26.837Z,100281.78
2023-03-05T20:58:54.191Z,100289.38
2023-03-05T21:01:20.723Z,100275.50
2023-03-05T21:03:47.643Z,100276.72
2023-03-05T21:06:14.082Z,100273.88
2023-03-05T21:08:40.462Z,100267.81
2023-03-05T21:11:08.261Z,100263.91
2023-03-05T21:13:34.965Z,100254.97
2023-03-05T21:16:05.679Z,100262.38
2023-03-05T21:18:32.204Z,100260.91
2023-03-05T21:20:58.581Z,100263.09
2023-03-05T21:23:24.984Z,100257.84
2023-03-05T21:25:51.394Z,100242.81
2023-03-05T21:28:18.678Z,100244.91
2023-03-05T21:30:51.958Z,100234.00
2023-03-05T21:33:23.030Z,100235.59
2023-03-05T21:35:52.784Z,100234.97
2023-03-05T21:38:25.517Z,100238.00
2023-03-05T21:40:53.656Z,100234.75
2023-03-05T21:43:21.902Z,100223.16
2023-03-05T21:45:49.166Z,100223.84
2023-03-05T21:48:15.847Z,100223.94
2023-03-05T21:50:44.315Z,100222.16
2023-03-05T21:53:15.235Z,100217.69
2023-03-05T21:55:54.054Z,100213.97
2023-03-05T21:58:20.475Z,100211.56
2023-03-05T22:00:46.874Z,100206.13
2023-03-05T22:03:13.270Z,100200.53
2023-03-05T22:05:42.556Z,100194.72
2023-03-05T22:08:08.964Z,100192.91
2023-03-05T22:10:35.397Z,100191.34
2023-03-05T22:13:02.590Z,100189.00
2023-03-05T22:15:29.116Z,100181.44
2023-03-05T22:17:55.509Z,100178.59
2023-03-05T22:20:21.894Z,100179.28
2023-03-05T22:22:48.463Z,100177.06
2023-03-05T22:25:15.557Z,100171.66
2023-03-05T22:27:43.053Z,100162.88
2023-03-05T22:30:11.079Z,100156.91
2023-03-05T22:32:37.932Z,100159.34
2023-03-05T22:35:06.230Z,100157.97
2023-03-05T22:37:33.224Z,100151.03
2023-03-05T22:39:59.609Z,100150.41
2023-03-05T22:42:25.988Z,100149.59
2023-03-05T22:44:57.306Z,100143.28
2023-03-05T22:47:24.788Z,100140.88
2023-03-05T22:49:51.177Z,100145.78
2023-03-05T22:52:17.546Z,100138.13
2023-03-05T22:54:43.900Z,100145.97
2023-03-05T22:57:10.307Z,100140.66
2023-03-05T22:59:36.705Z,100136.72
2023-03-05T23:02:03.133Z,100128.63
2023-03-05T23:04:48.811Z,100122.28
2023-03-05T23:07:26.128Z,100131.28
2023-03-05T23:09:54.840Z,100119.84
2023-03-05T23:12:21.904Z,100119.34
2023-03-05T23:14:48.300Z,100119.97
2023-03-05T23:17:14.761Z,100116.53
2023-03-05T23:19:41.262Z,100110.78
2023-03-05T23:22:08.660Z,100116.22
2023-03-05T23:24:36.152Z,100103.38
2023-03-05T23:27:05.322Z,100102.47
2023-03-05T23:29:38.349Z,100111.88
2023-03-05T23:32:05.096Z,100101.84
2023-03-05T23:34:31.495Z,100099.50
2023-03-05T23:37:00.085Z,100101.22
2023-03-05T23:39:26.458Z,100099.56
2023-03-05T23:41:52.826Z,100099.00
2023-03-05T23:44:19.190Z,100095.00
2023-03-05T23:46:45.594Z,100100.69
2023-03-05T23:49:12.004Z,100084.63
2023-03-05T23:51:38.403Z,100088.28
2023-03-05T23:54:05.019Z,100078.38
2023-03-05T23:56:32.051Z,100085.84
2023-03-05T23:59:00.512Z,100074.59
